»·PEaware :: N224JW KSAN-L17

N224JW :: KSAN-L17

FLIGHT INFORMATION

Flight Status: Arrived
Operator: Privately registered:
United States
More flights under this callsign
Pilot: Todd T. (13067)
Aircraft: BEECH AIRCRAFT BARON
(BE58)
More flights by this aircraft type
Origin: KSAN San Diego Intl-Lindbergh
United States
Destination: L17 Taft-Kern Co
United States
More flights between these airports :: More routes between these airports
Route: +MZB V23 SLI V459 LHS V165 JEFFY V137 GMN
File this flight plan on PilotEdge
Remarks:
Altitude:
(Current/Filed)
12,000ft
Speed:
(Current/Filed)
0kts
Departed: 04-Dec-17 06:49 PM
Arrived: 04-Dec-17 08:08 PM
Distance/Time
Traveled:
183nm/1:19
Distance/Time
To Go:
Arrived

Flight Plot

Page will automatically refresh every two minutes.

Flight plan parsing failed; only flown route is shown


Map Options




Map Legend


Flown Route
Filed Route
Departure Airport
Arrival Airport
Navaid (VOR, NDB)
Fix

Horizontal Profiles

Position Reports

Time Latitude Longitude Heading Altitude Ground
Speed
04-Dec-17 18:24 32.732413 -117.176631 194 29ft 0kts
04-Dec-17 18:25 32.732413 -117.176631 194 29ft 0kts
04-Dec-17 18:26 32.732413 -117.176631 194 29ft 0kts
04-Dec-17 18:27 32.732413 -117.176631 194 29ft 0kts
04-Dec-17 18:28 32.732413 -117.176631 194 29ft 0kts
04-Dec-17 18:33 32.732423 -117.176643 0 29ft 0kts
04-Dec-17 18:35 32.732423 -117.176643 194 29ft 0kts
04-Dec-17 18:39 32.732429 -117.176646 194 29ft 0kts
04-Dec-17 18:40 32.732429 -117.176646 194 29ft 0kts
04-Dec-17 18:41 32.732429 -117.176646 194 29ft 0kts
04-Dec-17 18:42 32.732429 -117.176646 194 29ft 0kts
04-Dec-17 18:43 32.732429 -117.176646 194 29ft 0kts
04-Dec-17 18:44 32.732429 -117.176646 194 29ft 0kts
04-Dec-17 18:45 32.732429 -117.176646 194 29ft 0kts
04-Dec-17 18:46 32.732429 -117.176646 194 29ft 0kts
04-Dec-17 18:47 32.732429 -117.176646 194 29ft 0kts
04-Dec-17 18:48 32.732080 -117.178315 265 23ft 9kts
04-Dec-17 18:49 32.732666 -117.181634 254 16ft 6kts
04-Dec-17 18:50 32.732487 -117.181850 206 16ft 0kts
04-Dec-17 18:51 32.732487 -117.181850 205 16ft 0kts
04-Dec-17 18:52 32.732485 -117.181850 200 16ft 0kts
04-Dec-17 18:53 32.731753 -117.182304 286 16ft 9kts
04-Dec-17 18:54 32.739923 -117.211453 302 707ft 137kts
04-Dec-17 18:55 32.772150 -117.244653 320 2028ft 155kts
04-Dec-17 18:56 32.813870 -117.267291 347 2792ft 196kts
04-Dec-17 18:57 32.860763 -117.281647 344 4361ft 162kts
04-Dec-17 18:58 32.899882 -117.299555 346 5767ft 143kts
04-Dec-17 18:59 32.937585 -117.314174 353 6779ft 149kts
04-Dec-17 19:00 32.979278 -117.326014 343 7665ft 162kts
04-Dec-17 19:01 33.020709 -117.339969 336 8770ft 142kts
04-Dec-17 19:02 33.054898 -117.354536 336 9727ft 125kts
04-Dec-17 19:03 33.087362 -117.367629 338 10470ft 123kts
04-Dec-17 19:04 33.120217 -117.378143 336 11150ft 123kts
04-Dec-17 19:05 33.153524 -117.388998 334 11830ft 126kts
04-Dec-17 19:06 33.190095 -117.401104 335 11971ft 144kts
04-Dec-17 19:07 33.229205 -117.413824 335 12001ft 151kts
04-Dec-17 19:08 33.262797 -117.442241 312 11998ft 153kts
04-Dec-17 19:09 33.295066 -117.476943 312 11995ft 157kts
04-Dec-17 19:10 33.327270 -117.511723 312 11992ft 154kts
04-Dec-17 19:11 33.358569 -117.545807 312 11993ft 151kts
04-Dec-17 19:12 33.389341 -117.579415 312 11994ft 150kts
04-Dec-17 19:13 33.420170 -117.613110 311 11998ft 150kts
04-Dec-17 19:14 33.450839 -117.646683 311 11993ft 150kts
04-Dec-17 19:15 33.480993 -117.680279 311 12000ft 151kts
04-Dec-17 19:16 33.512775 -117.715446 311 11998ft 157kts
04-Dec-17 19:17 33.541853 -117.752262 301 11992ft 153kts
04-Dec-17 19:18 33.568892 -117.791560 306 11998ft 153kts
04-Dec-17 19:19 33.597597 -117.828660 307 11998ft 153kts
04-Dec-17 19:20 33.627012 -117.865192 308 11998ft 153kts
04-Dec-17 19:21 33.656682 -117.901471 308 11998ft 153kts
04-Dec-17 19:22 33.686601 -117.937819 308 11998ft 153kts
04-Dec-17 19:23 33.716646 -117.974260 308 11998ft 154kts
04-Dec-17 19:24 33.746557 -118.010565 308 11998ft 154kts
04-Dec-17 19:25 33.776623 -118.047038 308 11997ft 154kts
04-Dec-17 19:26 33.814782 -118.072998 325 11997ft 161kts
04-Dec-17 19:27 33.853074 -118.096174 325 11997ft 161kts
04-Dec-17 19:28 33.891923 -118.119484 325 11997ft 162kts
04-Dec-17 19:29 33.931898 -118.143388 325 11998ft 163kts
04-Dec-17 19:30 33.972415 -118.167572 325 11996ft 163kts
04-Dec-17 19:31 34.012841 -118.191732 326 11996ft 162kts
04-Dec-17 19:32 34.053153 -118.215819 326 11996ft 162kts
04-Dec-17 19:33 34.093393 -118.239902 325 11996ft 161kts
04-Dec-17 19:34 34.133128 -118.263523 326 11996ft 161kts
04-Dec-17 19:35 34.173164 -118.287437 326 11996ft 160kts
04-Dec-17 19:36 34.213038 -118.311338 326 11996ft 160kts
04-Dec-17 19:37 34.252595 -118.335111 325 11996ft 159kts
04-Dec-17 19:38 34.295418 -118.350223 338 11996ft 164kts
04-Dec-17 19:39 34.337497 -118.366898 330 11996ft 160kts
04-Dec-17 19:40 34.377151 -118.388030 327 11995ft 158kts
04-Dec-17 19:41 34.416176 -118.410935 326 12000ft 156kts
04-Dec-17 19:42 34.454793 -118.434428 325 12000ft 156kts
04-Dec-17 19:43 34.493357 -118.458151 326 12000ft 156kts
04-Dec-17 19:44 34.526805 -118.488640 310 12000ft 150kts
04-Dec-17 19:45 34.556310 -118.524412 307 12000ft 149kts
04-Dec-17 19:46 34.584050 -118.561990 307 11999ft 149kts
04-Dec-17 19:47 34.611445 -118.599218 307 12032ft 146kts
04-Dec-17 19:48 34.638194 -118.635385 307 12075ft 144kts
04-Dec-17 19:49 34.663018 -118.669484 307 12081ft 146kts
04-Dec-17 19:50 34.689946 -118.706440 307 12081ft 147kts
04-Dec-17 19:51 34.717145 -118.743556 307 12080ft 147kts
04-Dec-17 19:52 34.744367 -118.780691 308 12079ft 147kts
04-Dec-17 19:53 34.771570 -118.817761 308 12079ft 146kts
04-Dec-17 19:54 34.798638 -118.854673 308 12078ft 146kts
04-Dec-17 19:55 34.822372 -118.894150 304 12078ft 145kts
04-Dec-17 19:56 34.845393 -118.934223 311 12067ft 146kts
04-Dec-17 19:57 34.870278 -118.976929 316 11884ft 177kts
04-Dec-17 19:58 34.900458 -119.022921 317 10980ft 187kts
04-Dec-17 19:59 34.928733 -119.067824 304 9660ft 161kts
04-Dec-17 20:00 34.948599 -119.121775 305 7886ft 183kts
04-Dec-17 20:01 34.973041 -119.172223 318 6816ft 164kts
04-Dec-17 20:02 35.001541 -119.213005 315 5712ft 147kts
04-Dec-17 20:03 35.029010 -119.245970 320 4396ft 137kts
04-Dec-17 20:04 35.054318 -119.280374 310 2938ft 131kts
04-Dec-17 20:05 35.076983 -119.318417 301 2000ft 137kts
04-Dec-17 20:06 35.098802 -119.350580 341 1671ft 123kts
04-Dec-17 20:07 35.132251 -119.354031 3 1831ft 121kts
04-Dec-17 20:08 35.146898 -119.384650 276 2066ft 117kts
04-Dec-17 20:09 35.144194 -119.421984 257 1129ft 99kts
04-Dec-17 20:10 35.134863 -119.457012 189 1785ft 112kts
04-Dec-17 20:11 35.126413 -119.422038 81 1875ft 123kts
04-Dec-17 20:12 35.144964 -119.416272 283 1320ft 111kts
04-Dec-17 20:13 35.140955 -119.442503 260 827ft 26kts
04-Dec-17 20:14 35.140323 -119.444282 212 827ft 0kts
04-Dec-17 20:15 35.140323 -119.444282 212 827ft 0kts

Navigation Log

Ident Type
Flight plan parsing failed, navigation log unavailable